Time,TemperatureF,DewpointF,PressureIn,WindDirection,WindDirectionDegrees,WindSpeedMPH,WindSpeedGustMPH,Humidity,HourlyPrecipIn,Conditions,Clouds,dailyrainin,SolarRadiationWatts/m^2,SoftwareType,DateUTC
2013-04-14 00:13:00,48.2,43.0,29.95,SSW,194,0.0,3.0,81,0.00,,,0.00,0,weatherlink.com 1.10,2013-04-14 07:13:00,
2013-04-14 00:28:00,48.0,43.0,29.95,SSW,194,0.0,2.0,82,0.00,,,0.00,0,weatherlink.com 1.10,2013-04-14 07:28:00,
2013-04-14 00:43:00,47.6,43.0,29.95,SSW,194,0.0,0.0,83,0.00,,,0.00,0,weatherlink.com 1.10,2013-04-14 07:43:00,
2013-04-14 00:58:00,47.3,43.0,29.95,SSW,194,0.0,0.0,84,0.00,,,0.00,0,weatherlink.com 1.10,2013-04-14 07:58:00,
2013-04-14 01:14:00,47.1,42.0,29.95,SSW,194,0.0,0.0,83,0.00,,,0.00,0,weatherlink.com 1.10,2013-04-14 08:14:00,
2013-04-14 01:29:00,46.9,42.0,29.95,SSW,194,0.0,2.0,83,0.00,,,0.00,0,weatherlink.com 1.10,2013-04-14 08:29:00,
2013-04-14 01:44:00,46.8,42.0,29.95,SSW,194,0.0,1.0,83,0.00,,,0.00,0,weatherlink.com 1.10,2013-04-14 08:44:00,
2013-04-14 01:59:00,46.7,42.0,29.95,SSW,194,0.0,0.0,84,0.00,,,0.00,0,weatherlink.com 1.10,2013-04-14 08:59:00,
2013-04-14 02:14:00,46.3,42.0,29.95,SSW,194,0.0,0.0,85,0.00,,,0.00,0,weatherlink.com 1.10,2013-04-14 09:14:00,
2013-04-14 02:29:00,45.9,42.0,29.95,SSW,194,0.0,0.0,86,0.00,,,0.00,0,weatherlink.com 1.10,2013-04-14 09:29:00,
2013-04-14 02:44:00,45.8,42.0,29.95,SSW,194,0.0,1.0,86,0.00,,,0.00,0,weatherlink.com 1.10,2013-04-14 09:44:00,
2013-04-14 02:59:00,45.8,42.0,29.95,SSW,194,0.0,1.0,86,0.00,,,0.00,0,weatherlink.com 1.10,2013-04-14 09:59:00,
2013-04-14 03:14:00,45.6,42.0,29.95,SSW,194,0.0,0.0,87,0.00,,,0.00,0,weatherlink.com 1.10,2013-04-14 10:14:00,
2013-04-14 03:29:00,45.2,42.0,29.95,SSW,194,0.0,0.0,87,0.00,,,0.00,0,weatherlink.com 1.10,2013-04-14 10:29:00,
2013-04-14 03:44:00,45.0,41.0,29.95,SSW,194,0.0,0.0,87,0.00,,,0.00,0,weatherlink.com 1.10,2013-04-14 10:44:00,
2013-04-14 03:59:00,44.9,42.0,29.95,SSW,194,0.0,0.0,88,0.00,,,0.00,0,weatherlink.com 1.10,2013-04-14 10:59:00,
2013-04-14 04:14:00,44.7,41.0,29.95,SSW,194,0.0,0.0,88,0.00,,,0.00,0,weatherlink.com 1.10,2013-04-14 11:14:00,
2013-04-14 04:29:00,44.5,42.0,29.95,SSW,194,0.0,0.0,89,0.00,,,0.00,0,weatherlink.com 1.10,2013-04-14 11:29:00,
2013-04-14 04:44:00,44.2,42.0,29.95,SSW,194,0.0,0.0,90,0.00,,,0.00,0,weatherlink.com 1.10,2013-04-14 11:44:00,
2013-04-14 04:59:00,44.0,41.0,29.95,SSW,194,0.0,0.0,90,0.00,,,0.00,0,weatherlink.com 1.10,2013-04-14 11:59:00,
2013-04-14 05:14:00,43.7,41.0,29.95,SSW,194,0.0,0.0,90,0.00,,,0.00,0,weatherlink.com 1.10,2013-04-14 12:14:00,
2013-04-14 05:29:00,43.6,41.0,29.95,SSW,194,0.0,1.0,91,0.00,,,0.00,0,weatherlink.com 1.10,2013-04-14 12:29:00,
2013-04-14 05:44:00,43.4,41.0,29.95,SSW,194,0.0,0.0,91,0.00,,,0.00,0,weatherlink.com 1.10,2013-04-14 12:44:00,
2013-04-14 05:59:00,43.3,41.0,29.95,SSW,194,0.0,0.0,91,0.00,,,0.00,0,weatherlink.com 1.10,2013-04-14 12:59:00,
2013-04-14 06:14:00,43.1,41.0,29.95,SSW,194,0.0,0.0,91,0.00,,,0.00,0,weatherlink.com 1.10,2013-04-14 13:14:00,
2013-04-14 06:29:00,42.8,40.0,29.95,SSW,194,0.0,0.0,91,0.00,,,0.00,0,weatherlink.com 1.10,2013-04-14 13:29:00,
2013-04-14 06:44:00,42.7,40.0,29.95,SSW,194,0.0,0.0,91,0.00,,,0.00,7,weatherlink.com 1.10,2013-04-14 13:44:00,
2013-04-14 06:59:00,42.8,41.0,29.95,SSW,194,0.0,0.0,92,0.00,,,0.00,16,weatherlink.com 1.10,2013-04-14 13:59:00,
2013-04-14 07:14:00,43.0,41.0,29.96,SSW,194,0.0,0.0,92,0.00,,,0.00,25,weatherlink.com 1.10,2013-04-14 14:14:00,
2013-04-14 07:29:00,43.7,42.0,29.96,SSW,194,0.0,1.0,93,0.00,,,0.00,42,weatherlink.com 1.10,2013-04-14 14:29:00,
2013-04-14 07:44:00,44.9,43.0,29.96,SSW,194,0.0,2.0,91,0.00,,,0.00,39,weatherlink.com 1.10,2013-04-14 14:44:00,
2013-04-14 07:59:00,45.6,43.0,29.97,SSW,194,0.0,3.0,89,0.00,,,0.00,130,weatherlink.com 1.10,2013-04-14 14:59:00,
2013-04-14 08:14:00,46.8,44.0,29.97,SSW,194,3.0,3.0,88,0.00,,,0.00,269,weatherlink.com 1.10,2013-04-14 15:14:00,
2013-04-14 08:29:00,47.8,44.0,29.98,West,271,1.0,4.0,86,0.00,,,0.00,341,weatherlink.com 1.10,2013-04-14 15:29:00,
2013-04-14 08:44:00,49.6,44.0,29.98,West,271,3.0,3.0,81,0.00,,,0.00,399,weatherlink.com 1.10,2013-04-14 15:44:00,
2013-04-14 08:59:00,51.0,44.0,29.97,West,271,1.0,4.0,76,0.00,,,0.00,450,weatherlink.com 1.10,2013-04-14 15:59:00,
2013-04-14 09:15:00,52.9,44.0,29.98,SE,134,0.0,4.0,71,0.00,,,0.00,506,weatherlink.com 1.10,2013-04-14 16:15:00,
2013-04-14 09:30:00,54.6,42.0,29.98,West,277,4.0,6.0,62,0.00,,,0.00,561,weatherlink.com 1.10,2013-04-14 16:30:00,
2013-04-14 09:45:00,53.9,41.0,29.98,West,273,1.0,5.0,61,0.00,,,0.00,601,weatherlink.com 1.10,2013-04-14 16:45:00,
2013-04-14 10:00:00,55.4,42.0,29.97,WSW,254,2.0,4.0,62,0.00,,,0.00,645,weatherlink.com 1.10,2013-04-14 17:00:00,
2013-04-14 10:15:00,55.9,41.0,29.98,WNW,285,2.0,8.0,58,0.00,,,0.00,691,weatherlink.com 1.10,2013-04-14 17:15:00,
2013-04-14 10:30:00,57.2,42.0,29.98,WSW,255,2.0,9.0,57,0.00,,,0.00,728,weatherlink.com 1.10,2013-04-14 17:30:00,
2013-04-14 10:45:00,58.0,43.0,29.98,WSW,250,4.0,7.0,57,0.00,,,0.00,766,weatherlink.com 1.10,2013-04-14 17:45:00,
2013-04-14 11:00:00,59.2,43.0,29.98,WSW,254,4.0,7.0,55,0.00,,,0.00,796,weatherlink.com 1.10,2013-04-14 18:00:00,
2013-04-14 11:15:00,60.3,42.0,29.97,WSW,244,5.0,7.0,51,0.00,,,0.00,828,weatherlink.com 1.10,2013-04-14 18:15:00,
2013-04-14 11:30:00,61.3,43.0,29.97,NW,305,1.0,8.0,51,0.00,,,0.00,847,weatherlink.com 1.10,2013-04-14 18:30:00,
2013-04-14 11:45:00,62.3,42.0,29.97,WSW,247,6.0,9.0,47,0.00,,,0.00,872,weatherlink.com 1.10,2013-04-14 18:45:00,
2013-04-14 12:00:00,62.9,42.0,29.96,South,186,1.0,5.0,46,0.00,,,0.00,888,weatherlink.com 1.10,2013-04-14 19:00:00,
2013-04-14 12:15:00,64.1,43.0,29.95,WSW,253,4.0,7.0,46,0.00,,,0.00,896,weatherlink.com 1.10,2013-04-14 19:15:00,
2013-04-14 12:30:00,64.4,44.0,29.95,SW,229,1.0,8.0,47,0.00,,,0.00,907,weatherlink.com 1.10,2013-04-14 19:30:00,
2013-04-14 12:45:00,64.7,44.0,29.94,West,264,3.0,9.0,48,0.00,,,0.00,912,weatherlink.com 1.10,2013-04-14 19:45:00,
2013-04-14 13:00:00,65.8,44.0,29.94,SW,227,5.0,9.0,46,0.00,,,0.00,914,weatherlink.com 1.10,2013-04-14 20:00:00,
2013-04-14 13:15:00,67.1,42.0,29.94,ESE,119,2.0,11.0,41,0.00,,,0.00,914,weatherlink.com 1.10,2013-04-14 20:15:00,
2013-04-14 13:30:00,66.4,41.0,29.93,SW,221,5.0,10.0,40,0.00,,,0.00,911,weatherlink.com 1.10,2013-04-14 20:30:00,
2013-04-14 13:45:00,67.8,40.0,29.93,West,263,6.0,9.0,36,0.00,,,0.00,900,weatherlink.com 1.10,2013-04-14 20:45:00,
2013-04-14 14:00:00,67.3,36.0,29.93,West,277,10.0,14.0,32,0.00,,,0.00,886,weatherlink.com 1.10,2013-04-14 21:00:00,
2013-04-14 14:15:00,66.5,38.0,29.93,WSW,255,8.0,14.0,35,0.00,,,0.00,863,weatherlink.com 1.10,2013-04-14 21:15:00,
2013-04-14 14:31:00,66.3,39.0,29.93,West,262,8.0,14.0,37,0.00,,,0.00,846,weatherlink.com 1.10,2013-04-14 21:31:00,
2013-04-14 14:46:00,66.5,40.0,29.93,West,270,6.0,13.0,38,0.00,,,0.00,823,weatherlink.com 1.10,2013-04-14 21:46:00,
2013-04-14 15:01:00,67.2,42.0,29.93,West,261,8.0,11.0,40,0.00,,,0.00,788,weatherlink.com 1.10,2013-04-14 22:01:00,
2013-04-14 15:16:00,67.9,41.0,29.93,West,259,14.0,14.0,38,0.00,,,0.00,756,weatherlink.com 1.10,2013-04-14 22:16:00,
2013-04-14 15:31:00,67.2,41.0,29.92,West,263,8.0,14.0,38,0.00,,,0.00,724,weatherlink.com 1.10,2013-04-14 22:31:00,
2013-04-14 15:46:00,67.8,40.0,29.91,West,268,6.0,15.0,36,0.00,,,0.00,687,weatherlink.com 1.10,2013-04-14 22:46:00,
2013-04-14 16:01:00,67.7,40.0,29.91,SW,216,4.0,15.0,37,0.00,,,0.00,649,weatherlink.com 1.10,2013-04-14 23:01:00,
2013-04-14 16:16:00,67.7,40.0,29.90,WSW,257,12.0,16.0,36,0.00,,,0.00,598,weatherlink.com 1.10,2013-04-14 23:16:00,
2013-04-14 16:31:00,67.4,41.0,29.90,WSW,255,9.0,17.0,38,0.00,,,0.00,559,weatherlink.com 1.10,2013-04-14 23:31:00,
2013-04-14 18:16:00,62.8,43.0,29.90,SSW,205,4.0,8.0,49,0.00,,,0.00,211,weatherlink.com 1.10,2013-04-15 01:16:00,
2013-04-14 19:01:00,58.2,43.0,29.91,South,188,3.0,8.0,58,0.00,,,0.00,62,weatherlink.com 1.10,2013-04-15 02:01:00,
2013-04-14 19:16:00,56.9,43.0,29.90,NW,322,4.0,8.0,60,0.00,,,0.00,28,weatherlink.com 1.10,2013-04-15 02:16:00,
2013-04-14 19:46:00,54.1,43.0,29.91,West,264,1.0,7.0,66,0.00,,,0.00,0,weatherlink.com 1.10,2013-04-15 02:46:00,
2013-04-14 20:01:00,53.3,43.0,29.91,SW,223,4.0,9.0,69,0.00,,,0.00,0,weatherlink.com 1.10,2013-04-15 03:01:00,
2013-04-14 20:16:00,53.2,44.0,29.91,West,266,2.0,7.0,70,0.00,,,0.00,0,weatherlink.com 1.10,2013-04-15 03:16:00,
2013-04-14 20:31:00,53.5,44.0,29.91,West,277,3.0,12.0,70,0.00,,,0.00,0,weatherlink.com 1.10,2013-04-15 03:31:00,
2013-04-14 20:46:00,53.2,44.0,29.91,West,264,2.0,12.0,71,0.00,,,0.00,0,weatherlink.com 1.10,2013-04-15 03:46:00,
2013-04-14 21:01:00,53.0,45.0,29.91,SW,234,2.0,15.0,73,0.00,,,0.00,0,weatherlink.com 1.10,2013-04-15 04:01:00,
2013-04-14 21:16:00,52.9,45.0,29.92,West,263,8.0,14.0,74,0.00,,,0.00,0,weatherlink.com 1.10,2013-04-15 04:16:00,
2013-04-14 21:31:00,52.6,45.0,29.93,West,270,8.0,14.0,74,0.00,,,0.00,0,weatherlink.com 1.10,2013-04-15 04:31:00,
2013-04-14 21:46:00,52.3,45.0,29.92,West,277,5.0,15.0,75,0.00,,,0.00,0,weatherlink.com 1.10,2013-04-15 04:46:00,
2013-04-14 22:01:00,52.1,45.0,29.93,WSW,249,7.0,12.0,76,0.00,,,0.00,0,weatherlink.com 1.10,2013-04-15 05:01:00,
2013-04-14 22:16:00,52.2,45.0,29.92,WSW,243,3.0,8.0,77,0.00,,,0.00,0,weatherlink.com 1.10,2013-04-15 05:16:00,
2013-04-14 22:31:00,51.9,45.0,29.93,SW,236,4.0,11.0,78,0.00,,,0.00,0,weatherlink.com 1.10,2013-04-15 05:31:00,
2013-04-14 22:46:00,51.4,45.0,29.93,SSE,147,0.0,10.0,79,0.00,,,0.00,0,weatherlink.com 1.10,2013-04-15 05:46:00,
2013-04-14 23:01:00,51.0,45.0,29.92,WSW,257,10.0,11.0,81,0.00,,,0.00,0,weatherlink.com 1.10,2013-04-15 06:01:00,
2013-04-14 23:16:00,50.6,46.0,29.92,West,266,6.0,11.0,83,0.00,,,0.00,0,weatherlink.com 1.10,2013-04-15 06:16:00,
2013-04-14 23:31:00,50.6,46.0,29.92,WNW,298,5.0,13.0,84,0.00,,,0.00,0,weatherlink.com 1.10,2013-04-15 06:31:00,
2013-04-14 23:46:00,50.6,46.0,29.92,SSW,200,1.0,8.0,85,0.00,,,0.00,0,weatherlink.com 1.10,2013-04-15 06:46:00,